sensor_id;sensor_type;location;lat;lon;timestamp;P1;durP1;ratioP1;P2;durP2;ratioP2
25467;SDS011;13384;24.794;110.498;2022-09-01T00:01:14;74.07;;;52.53;;
25467;SDS011;13384;24.794;110.498;2022-09-01T00:03:50;72.43;;;51.10;;
25467;SDS011;13384;24.794;110.498;2022-09-01T00:06:22;56.88;;;39.65;;
25467;SDS011;13384;24.794;110.498;2022-09-01T00:08:56;59.30;;;43.20;;
25467;SDS011;13384;24.794;110.498;2022-09-01T00:11:29;69.85;;;49.03;;
25467;SDS011;13384;24.794;110.498;2022-09-01T00:14:01;60.80;;;41.85;;
25467;SDS011;13384;24.794;110.498;2022-09-01T00:16:55;57.13;;;40.05;;
25467;SDS011;13384;24.794;110.498;2022-09-01T00:19:27;55.85;;;39.50;;
25467;SDS011;13384;24.794;110.498;2022-09-01T00:21:58;54.95;;;39.50;;
25467;SDS011;13384;24.794;110.498;2022-09-01T00:24:44;56.40;;;40.55;;
25467;SDS011;13384;24.794;110.498;2022-09-01T00:27:15;55.38;;;38.00;;
25467;SDS011;13384;24.794;110.498;2022-09-01T00:29:48;48.47;;;35.45;;
25467;SDS011;13384;24.794;110.498;2022-09-01T00:32:19;46.78;;;33.28;;
25467;SDS011;13384;24.794;110.498;2022-09-01T00:34:50;43.58;;;30.55;;
25467;SDS011;13384;24.794;110.498;2022-09-01T00:37:22;42.40;;;30.42;;
25467;SDS011;13384;24.794;110.498;2022-09-01T00:39:53;42.03;;;30.17;;
25467;SDS011;13384;24.794;110.498;2022-09-01T00:42:24;40.80;;;30.27;;
25467;SDS011;13384;24.794;110.498;2022-09-01T00:44:55;38.53;;;27.98;;
25467;SDS011;13384;24.794;110.498;2022-09-01T00:47:26;38.92;;;28.92;;
25467;SDS011;13384;24.794;110.498;2022-09-01T00:49:58;35.15;;;24.77;;
25467;SDS011;13384;24.794;110.498;2022-09-01T00:52:35;37.33;;;27.13;;
25467;SDS011;13384;24.794;110.498;2022-09-01T00:55:17;37.33;;;26.63;;
25467;SDS011;13384;24.794;110.498;2022-09-01T00:57:54;34.30;;;24.77;;
25467;SDS011;13384;24.794;110.498;2022-09-01T01:00:29;33.53;;;24.92;;
25467;SDS011;13384;24.794;110.498;2022-09-01T01:03:01;32.17;;;23.42;;
25467;SDS011;13384;24.794;110.498;2022-09-01T01:05:35;33.08;;;23.23;;
25467;SDS011;13384;24.794;110.498;2022-09-01T01:08:09;32.25;;;23.33;;
25467;SDS011;13384;24.794;110.498;2022-09-01T01:10:40;28.80;;;21.58;;
25467;SDS011;13384;24.794;110.498;2022-09-01T01:13:15;28.85;;;20.63;;
25467;SDS011;13384;24.794;110.498;2022-09-01T01:15:46;30.13;;;21.63;;
25467;SDS011;13384;24.794;110.498;2022-09-01T01:18:17;30.42;;;22.75;;
25467;SDS011;13384;24.794;110.498;2022-09-01T01:20:57;28.08;;;20.00;;
25467;SDS011;13384;24.794;110.498;2022-09-01T01:23:53;29.73;;;20.23;;
25467;SDS011;13384;24.794;110.498;2022-09-01T01:26:55;32.03;;;22.10;;
25467;SDS011;13384;24.794;110.498;2022-09-01T01:29:32;28.90;;;19.57;;
25467;SDS011;13384;24.794;110.498;2022-09-01T01:32:08;28.80;;;20.55;;
25467;SDS011;13384;24.794;110.498;2022-09-01T01:34:40;28.13;;;20.30;;
25467;SDS011;13384;24.794;110.498;2022-09-01T01:37:16;29.33;;;20.23;;
25467;SDS011;13384;24.794;110.498;2022-09-01T01:39:52;26.83;;;20.10;;
25467;SDS011;13384;24.794;110.498;2022-09-01T01:42:23;28.83;;;18.65;;
25467;SDS011;13384;24.794;110.498;2022-09-01T01:44:57;26.38;;;19.65;;
25467;SDS011;13384;24.794;110.498;2022-09-01T01:47:29;23.95;;;18.05;;
25467;SDS011;13384;24.794;110.498;2022-09-01T01:50:00;27.15;;;19.00;;
25467;SDS011;13384;24.794;110.498;2022-09-01T01:52:45;25.00;;;18.73;;
25467;SDS011;13384;24.794;110.498;2022-09-01T01:55:26;25.60;;;18.08;;
25467;SDS011;13384;24.794;110.498;2022-09-01T01:58:00;25.38;;;18.92;;
25467;SDS011;13384;24.794;110.498;2022-09-01T02:00:33;24.00;;;17.95;;
25467;SDS011;13384;24.794;110.498;2022-09-01T02:03:05;24.45;;;18.00;;
25467;SDS011;13384;24.794;110.498;2022-09-01T02:05:36;23.10;;;17.98;;
25467;SDS011;13384;24.794;110.498;2022-09-01T02:08:08;25.67;;;18.30;;
25467;SDS011;13384;24.794;110.498;2022-09-01T02:10:41;23.10;;;17.52;;
25467;SDS011;13384;24.794;110.498;2022-09-01T02:13:15;24.52;;;17.80;;
25467;SDS011;13384;24.794;110.498;2022-09-01T02:15:52;23.83;;;17.60;;
25467;SDS011;13384;24.794;110.498;2022-09-01T02:18:34;22.60;;;17.23;;
25467;SDS011;13384;24.794;110.498;2022-09-01T02:21:07;23.20;;;17.23;;
25467;SDS011;13384;24.794;110.498;2022-09-01T02:23:45;26.05;;;17.38;;
25467;SDS011;13384;24.794;110.498;2022-09-01T02:26:41;21.33;;;16.67;;
25467;SDS011;13384;24.794;110.498;2022-09-01T02:29:20;22.05;;;16.08;;
25467;SDS011;13384;24.794;110.498;2022-09-01T02:32:00;21.75;;;17.27;;
25467;SDS011;13384;24.794;110.498;2022-09-01T02:34:32;25.55;;;17.40;;
25467;SDS011;13384;24.794;110.498;2022-09-01T02:37:03;24.00;;;17.27;;
25467;SDS011;13384;24.794;110.498;2022-09-01T02:39:34;23.35;;;16.35;;
25467;SDS011;13384;24.794;110.498;2022-09-01T02:42:05;25.38;;;16.58;;
25467;SDS011;13384;24.794;110.498;2022-09-01T02:44:42;22.20;;;15.57;;
25467;SDS011;13384;24.794;110.498;2022-09-01T02:47:16;22.90;;;16.40;;
25467;SDS011;13384;24.794;110.498;2022-09-01T02:49:57;19.60;;;15.27;;
25467;SDS011;13384;24.794;110.498;2022-09-01T02:52:48;21.27;;;15.05;;
25467;SDS011;13384;24.794;110.498;2022-09-01T02:55:23;19.77;;;14.45;;
25467;SDS011;13384;24.794;110.498;2022-09-01T02:57:54;22.05;;;15.90;;
25467;SDS011;13384;24.794;110.498;2022-09-01T03:00:26;20.00;;;14.15;;
25467;SDS011;13384;24.794;110.498;2022-09-01T03:03:00;18.23;;;13.95;;
25467;SDS011;13384;24.794;110.498;2022-09-01T03:05:44;18.08;;;13.52;;
25467;SDS011;13384;24.794;110.498;2022-09-01T03:08:16;21.17;;;14.32;;
25467;SDS011;13384;24.794;110.498;2022-09-01T03:10:48;17.05;;;12.65;;
25467;SDS011;13384;24.794;110.498;2022-09-01T03:13:21;19.10;;;12.50;;
25467;SDS011;13384;24.794;110.498;2022-09-01T03:15:53;16.33;;;12.03;;
25467;SDS011;13384;24.794;110.498;2022-09-01T03:18:25;18.20;;;12.25;;
25467;SDS011;13384;24.794;110.498;2022-09-01T03:20:56;18.00;;;13.40;;
25467;SDS011;13384;24.794;110.498;2022-09-01T03:26:21;18.35;;;11.90;;
25467;SDS011;13384;24.794;110.498;2022-09-01T03:28:53;16.20;;;12.27;;
25467;SDS011;13384;24.794;110.498;2022-09-01T03:31:25;17.55;;;13.40;;
25467;SDS011;13384;24.794;110.498;2022-09-01T03:34:03;17.92;;;13.30;;
25467;SDS011;13384;24.794;110.498;2022-09-01T03:36:45;15.50;;;11.73;;
25467;SDS011;13384;24.794;110.498;2022-09-01T03:39:26;17.98;;;13.05;;
25467;SDS011;13384;24.794;110.498;2022-09-01T03:41:59;18.27;;;13.52;;
25467;SDS011;13384;24.794;110.498;2022-09-01T03:44:30;19.17;;;14.73;;
25467;SDS011;13384;24.794;110.498;2022-09-01T03:47:05;17.88;;;13.13;;
25467;SDS011;13384;24.794;110.498;2022-09-01T03:49:43;17.90;;;13.65;;
25467;SDS011;13384;24.794;110.498;2022-09-01T03:52:17;18.25;;;13.55;;
25467;SDS011;13384;24.794;110.498;2022-09-01T03:55:03;18.38;;;13.45;;
25467;SDS011;13384;24.794;110.498;2022-09-01T04:00:10;18.48;;;13.43;;
25467;SDS011;13384;24.794;110.498;2022-09-01T04:02:51;16.73;;;13.18;;
25467;SDS011;13384;24.794;110.498;2022-09-01T04:05:27;16.92;;;12.63;;
25467;SDS011;13384;24.794;110.498;2022-09-01T04:08:04;19.98;;;13.95;;
25467;SDS011;13384;24.794;110.498;2022-09-01T04:10:43;19.77;;;12.73;;
25467;SDS011;13384;24.794;110.498;2022-09-01T04:13:23;17.38;;;13.57;;
25467;SDS011;13384;24.794;110.498;2022-09-01T04:16:00;17.33;;;13.10;;
25467;SDS011;13384;24.794;110.498;2022-09-01T04:18:32;17.20;;;12.95;;
25467;SDS011;13384;24.794;110.498;2022-09-01T04:21:04;17.10;;;12.77;;
25467;SDS011;13384;24.794;110.498;2022-09-01T04:23:38;16.70;;;12.55;;
25467;SDS011;13384;24.794;110.498;2022-09-01T04:26:10;16.88;;;13.32;;
25467;SDS011;13384;24.794;110.498;2022-09-01T04:28:46;16.58;;;12.77;;
25467;SDS011;13384;24.794;110.498;2022-09-01T04:31:20;17.27;;;12.93;;
25467;SDS011;13384;24.794;110.498;2022-09-01T04:33:51;19.02;;;13.77;;
25467;SDS011;13384;24.794;110.498;2022-09-01T04:36:24;17.88;;;13.07;;
25467;SDS011;13384;24.794;110.498;2022-09-01T04:38:59;16.10;;;12.93;;
25467;SDS011;13384;24.794;110.498;2022-09-01T04:41:41;17.27;;;12.70;;
25467;SDS011;13384;24.794;110.498;2022-09-01T04:44:14;16.85;;;12.48;;
25467;SDS011;13384;24.794;110.498;2022-09-01T04:46:47;18.95;;;12.90;;
25467;SDS011;13384;24.794;110.498;2022-09-01T04:49:19;16.17;;;12.30;;
25467;SDS011;13384;24.794;110.498;2022-09-01T04:51:52;16.08;;;12.43;;
25467;SDS011;13384;24.794;110.498;2022-09-01T04:54:27;15.90;;;11.90;;
25467;SDS011;13384;24.794;110.498;2022-09-01T04:57:01;16.27;;;12.57;;
25467;SDS011;13384;24.794;110.498;2022-09-01T04:59:38;18.00;;;12.35;;
25467;SDS011;13384;24.794;110.498;2022-09-01T05:02:11;19.25;;;14.45;;
25467;SDS011;13384;24.794;110.498;2022-09-01T05:04:42;18.20;;;13.18;;
25467;SDS011;13384;24.794;110.498;2022-09-01T05:07:14;16.02;;;12.45;;
25467;SDS011;13384;24.794;110.498;2022-09-01T05:09:46;14.07;;;11.93;;
25467;SDS011;13384;24.794;110.498;2022-09-01T05:12:43;15.25;;;11.55;;
25467;SDS011;13384;24.794;110.498;2022-09-01T05:15:14;17.15;;;11.93;;
25467;SDS011;13384;24.794;110.498;2022-09-01T05:17:49;16.67;;;12.38;;
25467;SDS011;13384;24.794;110.498;2022-09-01T05:20:26;15.80;;;12.48;;
25467;SDS011;13384;24.794;110.498;2022-09-01T05:22:58;14.13;;;11.32;;
25467;SDS011;13384;24.794;110.498;2022-09-01T05:25:50;16.30;;;11.95;;
25467;SDS011;13384;24.794;110.498;2022-09-01T05:28:23;17.13;;;13.20;;
25467;SDS011;13384;24.794;110.498;2022-09-01T05:30:55;15.95;;;12.07;;
25467;SDS011;13384;24.794;110.498;2022-09-01T05:33:32;19.42;;;12.73;;
25467;SDS011;13384;24.794;110.498;2022-09-01T05:36:05;14.27;;;11.38;;
25467;SDS011;13384;24.794;110.498;2022-09-01T05:38:38;15.27;;;11.57;;
25467;SDS011;13384;24.794;110.498;2022-09-01T05:41:12;16.67;;;12.05;;
25467;SDS011;13384;24.794;110.498;2022-09-01T05:43:48;14.93;;;11.40;;
25467;SDS011;13384;24.794;110.498;2022-09-01T05:46:28;16.13;;;12.35;;
25467;SDS011;13384;24.794;110.498;2022-09-01T05:48:59;16.52;;;11.50;;
25467;SDS011;13384;24.794;110.498;2022-09-01T05:51:33;16.15;;;11.85;;
25467;SDS011;13384;24.794;110.498;2022-09-01T05:54:21;14.63;;;11.70;;
25467;SDS011;13384;24.794;110.498;2022-09-01T05:56:56;14.68;;;11.55;;
25467;SDS011;13384;24.794;110.498;2022-09-01T05:59:45;14.65;;;11.82;;
25467;SDS011;13384;24.794;110.498;2022-09-01T06:02:24;14.43;;;11.55;;
25467;SDS011;13384;24.794;110.498;2022-09-01T06:05:17;15.30;;;11.40;;
25467;SDS011;13384;24.794;110.498;2022-09-01T06:08:11;15.82;;;11.63;;
25467;SDS011;13384;24.794;110.498;2022-09-01T06:10:43;13.05;;;10.68;;
25467;SDS011;13384;24.794;110.498;2022-09-01T06:13:15;15.98;;;12.60;;
25467;SDS011;13384;24.794;110.498;2022-09-01T06:15:54;16.00;;;12.38;;
25467;SDS011;13384;24.794;110.498;2022-09-01T06:18:27;15.05;;;11.55;;
25467;SDS011;13384;24.794;110.498;2022-09-01T06:21:03;14.05;;;10.75;;
25467;SDS011;13384;24.794;110.498;2022-09-01T06:23:57;14.00;;;11.50;;
25467;SDS011;13384;24.794;110.498;2022-09-01T06:26:30;18.05;;;13.05;;
25467;SDS011;13384;24.794;110.498;2022-09-01T06:31:44;13.98;;;11.68;;
25467;SDS011;13384;24.794;110.498;2022-09-01T06:34:19;16.27;;;12.05;;
25467;SDS011;13384;24.794;110.498;2022-09-01T06:36:51;16.02;;;11.30;;
25467;SDS011;13384;24.794;110.498;2022-09-01T06:39:22;15.98;;;11.38;;
25467;SDS011;13384;24.794;110.498;2022-09-01T06:41:54;13.95;;;11.18;;
25467;SDS011;13384;24.794;110.498;2022-09-01T06:44:45;13.25;;;10.85;;
25467;SDS011;13384;24.794;110.498;2022-09-01T06:47:38;14.63;;;11.23;;
25467;SDS011;13384;24.794;110.498;2022-09-01T06:50:14;15.77;;;11.75;;
25467;SDS011;13384;24.794;110.498;2022-09-01T06:53:08;13.88;;;11.20;;
25467;SDS011;13384;24.794;110.498;2022-09-01T06:56:05;14.77;;;10.90;;
25467;SDS011;13384;24.794;110.498;2022-09-01T06:58:40;13.38;;;11.02;;
25467;SDS011;13384;24.794;110.498;2022-09-01T07:01:16;13.43;;;10.35;;
25467;SDS011;13384;24.794;110.498;2022-09-01T07:03:51;14.32;;;11.60;;
25467;SDS011;13384;24.794;110.498;2022-09-01T07:06:44;15.55;;;11.02;;
25467;SDS011;13384;24.794;110.498;2022-09-01T07:10:03;16.38;;;11.38;;
25467;SDS011;13384;24.794;110.498;2022-09-01T07:13:03;15.38;;;11.60;;
25467;SDS011;13384;24.794;110.498;2022-09-01T07:15:40;15.23;;;11.32;;
25467;SDS011;13384;24.794;110.498;2022-09-01T07:18:39;14.98;;;11.40;;
25467;SDS011;13384;24.794;110.498;2022-09-01T07:21:24;14.82;;;11.18;;
25467;SDS011;13384;24.794;110.498;2022-09-01T07:24:10;16.35;;;11.38;;
25467;SDS011;13384;24.794;110.498;2022-09-01T07:27:02;15.60;;;11.35;;
25467;SDS011;13384;24.794;110.498;2022-09-01T07:29:36;15.35;;;11.30;;
25467;SDS011;13384;24.794;110.498;2022-09-01T07:32:08;13.82;;;10.88;;
25467;SDS011;13384;24.794;110.498;2022-09-01T07:34:59;13.52;;;11.00;;
25467;SDS011;13384;24.794;110.498;2022-09-01T07:37:39;13.23;;;10.52;;
25467;SDS011;13384;24.794;110.498;2022-09-01T07:40:32;15.15;;;11.00;;
25467;SDS011;13384;24.794;110.498;2022-09-01T07:43:47;16.15;;;10.82;;
25467;SDS011;13384;24.794;110.498;2022-09-01T07:46:42;15.52;;;10.82;;
25467;SDS011;13384;24.794;110.498;2022-09-01T07:49:40;16.70;;;11.07;;
25467;SDS011;13384;24.794;110.498;2022-09-01T07:55:26;13.45;;;10.35;;
25467;SDS011;13384;24.794;110.498;2022-09-01T07:57:59;14.27;;;10.80;;
25467;SDS011;13384;24.794;110.498;2022-09-01T08:00:33;13.48;;;10.57;;
25467;SDS011;13384;24.794;110.498;2022-09-01T08:03:07;13.45;;;10.93;;
25467;SDS011;13384;24.794;110.498;2022-09-01T08:05:39;14.63;;;11.18;;
25467;SDS011;13384;24.794;110.498;2022-09-01T08:08:31;13.88;;;10.55;;
25467;SDS011;13384;24.794;110.498;2022-09-01T08:11:27;16.80;;;11.77;;
25467;SDS011;13384;24.794;110.498;2022-09-01T08:14:20;14.77;;;11.43;;
25467;SDS011;13384;24.794;110.498;2022-09-01T08:16:52;14.57;;;10.80;;
25467;SDS011;13384;24.794;110.498;2022-09-01T08:19:24;13.65;;;10.63;;
25467;SDS011;13384;24.794;110.498;2022-09-01T08:22:10;16.15;;;11.25;;
25467;SDS011;13384;24.794;110.498;2022-09-01T08:25:08;17.05;;;11.88;;
25467;SDS011;13384;24.794;110.498;2022-09-01T08:27:39;14.10;;;11.18;;
25467;SDS011;13384;24.794;110.498;2022-09-01T08:30:11;15.00;;;11.00;;
25467;SDS011;13384;24.794;110.498;2022-09-01T08:32:44;13.00;;;10.52;;
25467;SDS011;13384;24.794;110.498;2022-09-01T08:35:42;14.63;;;11.18;;
25467;SDS011;13384;24.794;110.498;2022-09-01T08:38:18;14.07;;;10.10;;
25467;SDS011;13384;24.794;110.498;2022-09-01T08:40:50;14.20;;;10.93;;
25467;SDS011;13384;24.794;110.498;2022-09-01T08:46:32;15.77;;;11.60;;
25467;SDS011;13384;24.794;110.498;2022-09-01T08:49:21;14.32;;;11.10;;
25467;SDS011;13384;24.794;110.498;2022-09-01T08:52:31;13.25;;;10.05;;
25467;SDS011;13384;24.794;110.498;2022-09-01T08:55:17;13.50;;;10.38;;
25467;SDS011;13384;24.794;110.498;2022-09-01T08:57:55;13.98;;;11.00;;
25467;SDS011;13384;24.794;110.498;2022-09-01T09:01:03;13.55;;;10.52;;
25467;SDS011;13384;24.794;110.498;2022-09-01T09:06:49;15.75;;;11.00;;
25467;SDS011;13384;24.794;110.498;2022-09-01T09:16:07;12.70;;;10.23;;
25467;SDS011;13384;24.794;110.498;2022-09-01T09:18:50;14.77;;;10.68;;
25467;SDS011;13384;24.794;110.498;2022-09-01T09:21:38;11.90;;;9.88;;
25467;SDS011;13384;24.794;110.498;2022-09-01T09:24:27;14.00;;;10.77;;
25467;SDS011;13384;24.794;110.498;2022-09-01T09:27:23;15.70;;;10.35;;
25467;SDS011;13384;24.794;110.498;2022-09-01T09:35:35;13.13;;;10.68;;
25467;SDS011;13384;24.794;110.498;2022-09-01T09:41:06;14.75;;;11.10;;
25467;SDS011;13384;24.794;110.498;2022-09-01T09:43:48;15.10;;;11.32;;
25467;SDS011;13384;24.794;110.498;2022-09-01T09:46:42;14.32;;;10.43;;
25467;SDS011;13384;24.794;110.498;2022-09-01T09:52:24;14.45;;;10.40;;
25467;SDS011;13384;24.794;110.498;2022-09-01T09:55:00;15.27;;;11.13;;
25467;SDS011;13384;24.794;110.498;2022-09-01T09:57:37;15.43;;;10.70;;
25467;SDS011;13384;24.794;110.498;2022-09-01T10:03:05;14.02;;;11.20;;
25467;SDS011;13384;24.794;110.498;2022-09-01T10:05:47;14.00;;;10.93;;
25467;SDS011;13384;24.794;110.498;2022-09-01T10:10:58;13.63;;;10.85;;
25467;SDS011;13384;24.794;110.498;2022-09-01T10:13:29;13.80;;;10.95;;
25467;SDS011;13384;24.794;110.498;2022-09-01T10:16:06;14.05;;;10.65;;
25467;SDS011;13384;24.794;110.498;2022-09-01T10:18:49;13.10;;;10.43;;
25467;SDS011;13384;24.794;110.498;2022-09-01T10:21:25;14.77;;;11.15;;
25467;SDS011;13384;24.794;110.498;2022-09-01T10:24:35;12.90;;;10.63;;
25467;SDS011;13384;24.794;110.498;2022-09-01T10:27:17;13.38;;;10.55;;
25467;SDS011;13384;24.794;110.498;2022-09-01T10:30:15;13.65;;;10.77;;
25467;SDS011;13384;24.794;110.498;2022-09-01T10:35:29;13.68;;;10.85;;
25467;SDS011;13384;24.794;110.498;2022-09-01T10:38:08;13.88;;;10.35;;
25467;SDS011;13384;24.794;110.498;2022-09-01T10:40:52;13.40;;;10.32;;
25467;SDS011;13384;24.794;110.498;2022-09-01T10:43:45;12.68;;;10.43;;
25467;SDS011;13384;24.794;110.498;2022-09-01T10:49:03;12.35;;;9.85;;
25467;SDS011;13384;24.794;110.498;2022-09-01T10:51:57;15.05;;;10.85;;
25467;SDS011;13384;24.794;110.498;2022-09-01T10:54:48;12.35;;;9.60;;
25467;SDS011;13384;24.794;110.498;2022-09-01T11:06:04;14.50;;;10.82;;
25467;SDS011;13384;24.794;110.498;2022-09-01T11:08:41;13.18;;;10.68;;
25467;SDS011;13384;24.794;110.498;2022-09-01T11:14:23;14.27;;;11.30;;
25467;SDS011;13384;24.794;110.498;2022-09-01T11:19:58;13.90;;;10.68;;
25467;SDS011;13384;24.794;110.498;2022-09-01T11:22:40;15.80;;;10.52;;
25467;SDS011;13384;24.794;110.498;2022-09-01T11:28:37;14.82;;;11.93;;
25467;SDS011;13384;24.794;110.498;2022-09-01T11:31:13;15.38;;;11.63;;
25467;SDS011;13384;24.794;110.498;2022-09-01T11:34:10;16.73;;;12.40;;
25467;SDS011;13384;24.794;110.498;2022-09-01T11:36:46;15.18;;;11.52;;
25467;SDS011;13384;24.794;110.498;2022-09-01T11:39:51;15.23;;;11.32;;
25467;SDS011;13384;24.794;110.498;2022-09-01T11:42:37;17.05;;;12.32;;
25467;SDS011;13384;24.794;110.498;2022-09-01T11:45:15;19.35;;;13.50;;
25467;SDS011;13384;24.794;110.498;2022-09-01T11:48:11;18.10;;;13.52;;
25467;SDS011;13384;24.794;110.498;2022-09-01T11:50:43;20.92;;;14.10;;
25467;SDS011;13384;24.794;110.498;2022-09-01T11:53:25;23.35;;;14.77;;
25467;SDS011;13384;24.794;110.498;2022-09-01T11:56:11;29.15;;;18.90;;
25467;SDS011;13384;24.794;110.498;2022-09-01T11:58:48;28.48;;;17.80;;
25467;SDS011;13384;24.794;110.498;2022-09-01T12:01:21;31.42;;;19.98;;
25467;SDS011;13384;24.794;110.498;2022-09-01T12:04:45;35.55;;;20.60;;
25467;SDS011;13384;24.794;110.498;2022-09-01T12:07:07;26.75;;;17.83;;
25467;SDS011;13384;24.794;110.498;2022-09-01T12:09:44;32.60;;;20.63;;
25467;SDS011;13384;24.794;110.498;2022-09-01T12:12:35;28.80;;;18.52;;
25467;SDS011;13384;24.794;110.498;2022-09-01T12:15:17;28.70;;;18.13;;
25467;SDS011;13384;24.794;110.498;2022-09-01T12:17:59;25.83;;;16.25;;
25467;SDS011;13384;24.794;110.498;2022-09-01T12:21:00;28.50;;;17.67;;
25467;SDS011;13384;24.794;110.498;2022-09-01T12:23:34;27.00;;;16.73;;
25467;SDS011;13384;24.794;110.498;2022-09-01T12:26:27;24.83;;;15.93;;
25467;SDS011;13384;24.794;110.498;2022-09-01T12:29:19;36.78;;;23.77;;
25467;SDS011;13384;24.794;110.498;2022-09-01T12:31:54;27.67;;;20.45;;
25467;SDS011;13384;24.794;110.498;2022-09-01T12:37:23;23.35;;;16.23;;
25467;SDS011;13384;24.794;110.498;2022-09-01T12:39:57;22.17;;;15.07;;
25467;SDS011;13384;24.794;110.498;2022-09-01T12:42:30;22.58;;;14.65;;
25467;SDS011;13384;24.794;110.498;2022-09-01T12:48:50;22.65;;;15.20;;
25467;SDS011;13384;24.794;110.498;2022-09-01T12:51:22;21.35;;;14.48;;
25467;SDS011;13384;24.794;110.498;2022-09-01T12:53:59;20.48;;;14.45;;
25467;SDS011;13384;24.794;110.498;2022-09-01T12:56:34;21.25;;;14.20;;
25467;SDS011;13384;24.794;110.498;2022-09-01T12:59:48;22.25;;;14.60;;
25467;SDS011;13384;24.794;110.498;2022-09-01T13:02:34;20.02;;;14.05;;
25467;SDS011;13384;24.794;110.498;2022-09-01T13:06:01;21.38;;;14.20;;
25467;SDS011;13384;24.794;110.498;2022-09-01T13:08:52;19.08;;;13.80;;
25467;SDS011;13384;24.794;110.498;2022-09-01T13:11:25;19.75;;;14.02;;
25467;SDS011;13384;24.794;110.498;2022-09-01T13:14:16;18.52;;;13.45;;
25467;SDS011;13384;24.794;110.498;2022-09-01T13:16:47;19.95;;;13.80;;
25467;SDS011;13384;24.794;110.498;2022-09-01T13:19:20;23.83;;;14.13;;
25467;SDS011;13384;24.794;110.498;2022-09-01T13:21:57;17.55;;;13.35;;
25467;SDS011;13384;24.794;110.498;2022-09-01T13:24:47;20.52;;;14.32;;
25467;SDS011;13384;24.794;110.498;2022-09-01T13:27:19;20.50;;;14.30;;
25467;SDS011;13384;24.794;110.498;2022-09-01T13:29:52;18.77;;;13.00;;
25467;SDS011;13384;24.794;110.498;2022-09-01T13:32:25;21.60;;;14.52;;
25467;SDS011;13384;24.794;110.498;2022-09-01T13:34:57;18.73;;;13.38;;
25467;SDS011;13384;24.794;110.498;2022-09-01T13:37:29;19.00;;;13.60;;
25467;SDS011;13384;24.794;110.498;2022-09-01T13:40:02;19.50;;;14.50;;
25467;SDS011;13384;24.794;110.498;2022-09-01T13:42:37;22.05;;;13.70;;
25467;SDS011;13384;24.794;110.498;2022-09-01T13:45:09;17.10;;;13.48;;
25467;SDS011;13384;24.794;110.498;2022-09-01T13:48:03;19.67;;;14.35;;
25467;SDS011;13384;24.794;110.498;2022-09-01T13:51:07;17.77;;;12.63;;
25467;SDS011;13384;24.794;110.498;2022-09-01T13:53:44;20.05;;;13.50;;
25467;SDS011;13384;24.794;110.498;2022-09-01T13:58:47;20.67;;;13.60;;
25467;SDS011;13384;24.794;110.498;2022-09-01T14:01:18;18.23;;;13.80;;
25467;SDS011;13384;24.794;110.498;2022-09-01T14:03:51;21.30;;;13.82;;
25467;SDS011;13384;24.794;110.498;2022-09-01T14:06:43;15.32;;;11.73;;
25467;SDS011;13384;24.794;110.498;2022-09-01T14:09:18;17.90;;;12.93;;
25467;SDS011;13384;24.794;110.498;2022-09-01T14:11:52;19.45;;;13.98;;
25467;SDS011;13384;24.794;110.498;2022-09-01T14:14:26;19.42;;;13.95;;
25467;SDS011;13384;24.794;110.498;2022-09-01T14:17:21;19.30;;;13.73;;
25467;SDS011;13384;24.794;110.498;2022-09-01T14:20:18;20.97;;;13.77;;
25467;SDS011;13384;24.794;110.498;2022-09-01T14:22:50;21.65;;;14.27;;
25467;SDS011;13384;24.794;110.498;2022-09-01T14:25:24;22.88;;;14.43;;
25467;SDS011;13384;24.794;110.498;2022-09-01T14:27:57;16.88;;;12.85;;
25467;SDS011;13384;24.794;110.498;2022-09-01T14:30:31;19.00;;;13.35;;
25467;SDS011;13384;24.794;110.498;2022-09-01T14:33:02;18.33;;;13.35;;
25467;SDS011;13384;24.794;110.498;2022-09-01T14:35:39;23.25;;;13.73;;
25467;SDS011;13384;24.794;110.498;2022-09-01T14:38:32;18.58;;;13.45;;
25467;SDS011;13384;24.794;110.498;2022-09-01T14:41:04;18.98;;;13.70;;
25467;SDS011;13384;24.794;110.498;2022-09-01T14:43:55;18.27;;;13.25;;
25467;SDS011;13384;24.794;110.498;2022-09-01T14:46:31;19.70;;;13.90;;
25467;SDS011;13384;24.794;110.498;2022-09-01T14:49:25;18.20;;;13.40;;
25467;SDS011;13384;24.794;110.498;2022-09-01T14:51:57;17.15;;;13.23;;
25467;SDS011;13384;24.794;110.498;2022-09-01T14:54:39;17.75;;;13.02;;
25467;SDS011;13384;24.794;110.498;2022-09-01T14:57:30;19.13;;;13.93;;
25467;SDS011;13384;24.794;110.498;2022-09-01T15:00:05;18.98;;;13.43;;
25467;SDS011;13384;24.794;110.498;2022-09-01T15:02:41;18.13;;;13.38;;
25467;SDS011;13384;24.794;110.498;2022-09-01T15:05:14;16.13;;;12.70;;
25467;SDS011;13384;24.794;110.498;2022-09-01T15:10:20;19.08;;;13.13;;
25467;SDS011;13384;24.794;110.498;2022-09-01T15:12:57;19.10;;;13.80;;
25467;SDS011;13384;24.794;110.498;2022-09-01T15:15:32;21.15;;;13.68;;
25467;SDS011;13384;24.794;110.498;2022-09-01T15:20:39;17.30;;;13.27;;
25467;SDS011;13384;24.794;110.498;2022-09-01T15:23:20;21.27;;;14.43;;
25467;SDS011;13384;24.794;110.498;2022-09-01T15:25:57;19.65;;;13.48;;
25467;SDS011;13384;24.794;110.498;2022-09-01T15:28:49;17.83;;;12.48;;
25467;SDS011;13384;24.794;110.498;2022-09-01T15:31:40;18.50;;;12.45;;
25467;SDS011;13384;24.794;110.498;2022-09-01T15:34:15;18.25;;;12.98;;
25467;SDS011;13384;24.794;110.498;2022-09-01T15:36:48;18.52;;;12.88;;
25467;SDS011;13384;24.794;110.498;2022-09-01T15:39:20;19.33;;;13.45;;
25467;SDS011;13384;24.794;110.498;2022-09-01T15:42:04;20.02;;;13.88;;
25467;SDS011;13384;24.794;110.498;2022-09-01T15:44:36;17.65;;;13.20;;
25467;SDS011;13384;24.794;110.498;2022-09-01T15:47:08;16.35;;;12.63;;
25467;SDS011;13384;24.794;110.498;2022-09-01T15:49:39;19.45;;;13.52;;
25467;SDS011;13384;24.794;110.498;2022-09-01T15:52:10;17.10;;;12.13;;
25467;SDS011;13384;24.794;110.498;2022-09-01T15:54:42;19.83;;;12.95;;
25467;SDS011;13384;24.794;110.498;2022-09-01T15:57:16;18.17;;;13.57;;
25467;SDS011;13384;24.794;110.498;2022-09-01T15:59:50;15.52;;;12.55;;
25467;SDS011;13384;24.794;110.498;2022-09-01T16:02:43;16.65;;;12.73;;
25467;SDS011;13384;24.794;110.498;2022-09-01T16:07:46;18.98;;;13.02;;
25467;SDS011;13384;24.794;110.498;2022-09-01T16:10:21;17.50;;;12.27;;
25467;SDS011;13384;24.794;110.498;2022-09-01T16:13:12;16.10;;;12.75;;
25467;SDS011;13384;24.794;110.498;2022-09-01T16:15:45;15.57;;;12.85;;
25467;SDS011;13384;24.794;110.498;2022-09-01T16:18:52;17.17;;;12.65;;
25467;SDS011;13384;24.794;110.498;2022-09-01T16:24:47;18.80;;;13.05;;
25467;SDS011;13384;24.794;110.498;2022-09-01T16:27:22;17.98;;;12.23;;
25467;SDS011;13384;24.794;110.498;2022-09-01T16:30:06;16.42;;;13.05;;